sensor_id;sensor_type;location;lat;lon;timestamp;temperature;humidity
79356;SHT31;68825;51.978;5.654;2023-05-07T00:01:08;18.2;70.1
79356;SHT31;68825;51.978;5.654;2023-05-07T00:03:37;18.2;70.0
79356;SHT31;68825;51.978;5.654;2023-05-07T00:06:06;18.2;70.5
79356;SHT31;68825;51.978;5.654;2023-05-07T00:08:36;18.2;70.4
79356;SHT31;68825;51.978;5.654;2023-05-07T00:11:05;18.2;70.3
79356;SHT31;68825;51.978;5.654;2023-05-07T00:13:34;18.2;70.3
79356;SHT31;68825;51.978;5.654;2023-05-07T00:16:03;18.1;70.3
79356;SHT31;68825;51.978;5.654;2023-05-07T00:18:32;18.1;70.2
79356;SHT31;68825;51.978;5.654;2023-05-07T00:21:00;18.1;70.0
79356;SHT31;68825;51.978;5.654;2023-05-07T00:23:29;18.1;69.7
79356;SHT31;68825;51.978;5.654;2023-05-07T00:25:58;18.1;69.7
79356;SHT31;68825;51.978;5.654;2023-05-07T00:28:26;18.1;69.8
79356;SHT31;68825;51.978;5.654;2023-05-07T00:30:55;18.1;69.5
79356;SHT31;68825;51.978;5.654;2023-05-07T00:33:24;18.0;69.4
79356;SHT31;68825;51.978;5.654;2023-05-07T00:35:53;18.0;69.4
79356;SHT31;68825;51.978;5.654;2023-05-07T00:38:22;18.0;69.5
79356;SHT31;68825;51.978;5.654;2023-05-07T00:40:51;18.0;69.5
79356;SHT31;68825;51.978;5.654;2023-05-07T00:43:19;17.9;69.5
79356;SHT31;68825;51.978;5.654;2023-05-07T00:45:48;17.9;69.4
79356;SHT31;68825;51.978;5.654;2023-05-07T00:48:17;17.9;69.6
79356;SHT31;68825;51.978;5.654;2023-05-07T00:50:48;17.8;69.7
79356;SHT31;68825;51.978;5.654;2023-05-07T00:53:17;17.8;69.9
79356;SHT31;68825;51.978;5.654;2023-05-07T00:55:46;17.8;70.3
79356;SHT31;68825;51.978;5.654;2023-05-07T00:58:14;17.8;70.4
79356;SHT31;68825;51.978;5.654;2023-05-07T01:00:44;17.8;70.5
79356;SHT31;68825;51.978;5.654;2023-05-07T01:03:13;17.8;70.7
79356;SHT31;68825;51.978;5.654;2023-05-07T01:05:44;17.7;70.2
79356;SHT31;68825;51.978;5.654;2023-05-07T01:08:15;17.7;70.6
79356;SHT31;68825;51.978;5.654;2023-05-07T01:10:45;17.7;70.9
79356;SHT31;68825;51.978;5.654;2023-05-07T01:13:17;17.7;70.8
79356;SHT31;68825;51.978;5.654;2023-05-07T01:15:47;17.7;70.8
79356;SHT31;68825;51.978;5.654;2023-05-07T01:18:16;17.7;71.1
79356;SHT31;68825;51.978;5.654;2023-05-07T01:20:45;17.7;71.2
79356;SHT31;68825;51.978;5.654;2023-05-07T01:23:17;17.7;71.3
79356;SHT31;68825;51.978;5.654;2023-05-07T01:25:52;17.7;71.2
79356;SHT31;68825;51.978;5.654;2023-05-07T01:28:21;17.7;71.2
79356;SHT31;68825;51.978;5.654;2023-05-07T01:30:54;17.7;71.1
79356;SHT31;68825;51.978;5.654;2023-05-07T01:33:24;17.7;70.5
79356;SHT31;68825;51.978;5.654;2023-05-07T01:35:54;17.7;70.9
79356;SHT31;68825;51.978;5.654;2023-05-07T01:38:25;17.8;71.2
79356;SHT31;68825;51.978;5.654;2023-05-07T01:40:55;17.8;71.1
79356;SHT31;68825;51.978;5.654;2023-05-07T01:43:26;17.8;70.7
79356;SHT31;68825;51.978;5.654;2023-05-07T01:45:55;17.8;70.8
79356;SHT31;68825;51.978;5.654;2023-05-07T01:48:24;17.8;70.7
79356;SHT31;68825;51.978;5.654;2023-05-07T01:50:55;17.8;70.8
79356;SHT31;68825;51.978;5.654;2023-05-07T01:53:26;17.8;70.6
79356;SHT31;68825;51.978;5.654;2023-05-07T01:55:55;17.8;70.4
79356;SHT31;68825;51.978;5.654;2023-05-07T01:58:24;17.8;70.4
79356;SHT31;68825;51.978;5.654;2023-05-07T02:00:52;17.8;70.3
79356;SHT31;68825;51.978;5.654;2023-05-07T02:03:21;17.8;69.9
79356;SHT31;68825;51.978;5.654;2023-05-07T02:05:49;17.8;69.9
79356;SHT31;68825;51.978;5.654;2023-05-07T02:08:18;17.8;70.6
79356;SHT31;68825;51.978;5.654;2023-05-07T02:10:46;17.8;70.2
79356;SHT31;68825;51.978;5.654;2023-05-07T02:13:16;17.8;70.0
79356;SHT31;68825;51.978;5.654;2023-05-07T02:15:46;17.8;69.9
79356;SHT31;68825;51.978;5.654;2023-05-07T02:18:17;17.8;70.2
79356;SHT31;68825;51.978;5.654;2023-05-07T02:20:45;17.8;69.6
79356;SHT31;68825;51.978;5.654;2023-05-07T02:23:16;17.8;69.6
79356;SHT31;68825;51.978;5.654;2023-05-07T02:25:44;17.8;69.7
79356;SHT31;68825;51.978;5.654;2023-05-07T02:28:13;17.8;70.4
79356;SHT31;68825;51.978;5.654;2023-05-07T02:30:42;17.8;69.9
79356;SHT31;68825;51.978;5.654;2023-05-07T02:33:10;17.7;70.3
79356;SHT31;68825;51.978;5.654;2023-05-07T02:35:40;17.7;70.3
79356;SHT31;68825;51.978;5.654;2023-05-07T02:38:10;17.7;70.3
79356;SHT31;68825;51.978;5.654;2023-05-07T02:40:39;17.7;70.6
79356;SHT31;68825;51.978;5.654;2023-05-07T02:43:09;17.6;70.7
79356;SHT31;68825;51.978;5.654;2023-05-07T02:45:38;17.6;71.2
79356;SHT31;68825;51.978;5.654;2023-05-07T02:48:07;17.6;71.0
79356;SHT31;68825;51.978;5.654;2023-05-07T02:50:37;17.6;71.2
79356;SHT31;68825;51.978;5.654;2023-05-07T02:53:06;17.6;71.1
79356;SHT31;68825;51.978;5.654;2023-05-07T02:55:36;17.6;70.8
79356;SHT31;68825;51.978;5.654;2023-05-07T02:58:05;17.6;71.0
79356;SHT31;68825;51.978;5.654;2023-05-07T03:00:33;17.6;71.1
79356;SHT31;68825;51.978;5.654;2023-05-07T03:03:02;17.6;71.0
79356;SHT31;68825;51.978;5.654;2023-05-07T03:05:31;17.6;71.2
79356;SHT31;68825;51.978;5.654;2023-05-07T03:07:59;17.6;71.0
79356;SHT31;68825;51.978;5.654;2023-05-07T03:10:28;17.6;70.9
79356;SHT31;68825;51.978;5.654;2023-05-07T03:12:57;17.6;70.2
79356;SHT31;68825;51.978;5.654;2023-05-07T03:15:25;17.6;70.7
79356;SHT31;68825;51.978;5.654;2023-05-07T03:17:54;17.6;70.8
79356;SHT31;68825;51.978;5.654;2023-05-07T03:20:22;17.6;70.9
79356;SHT31;68825;51.978;5.654;2023-05-07T03:22:51;17.5;71.1
79356;SHT31;68825;51.978;5.654;2023-05-07T03:25:20;17.5;70.9
79356;SHT31;68825;51.978;5.654;2023-05-07T03:27:48;17.5;70.4
79356;SHT31;68825;51.978;5.654;2023-05-07T03:30:19;17.5;70.9
79356;SHT31;68825;51.978;5.654;2023-05-07T03:32:48;17.5;70.9
79356;SHT31;68825;51.978;5.654;2023-05-07T03:35:17;17.5;71.1
79356;SHT31;68825;51.978;5.654;2023-05-07T03:37:45;17.5;71.0
79356;SHT31;68825;51.978;5.654;2023-05-07T03:40:14;17.5;70.9
79356;SHT31;68825;51.978;5.654;2023-05-07T03:42:45;17.5;70.8
79356;SHT31;68825;51.978;5.654;2023-05-07T03:45:13;17.5;70.4
79356;SHT31;68825;51.978;5.654;2023-05-07T03:47:42;17.5;70.7
79356;SHT31;68825;51.978;5.654;2023-05-07T03:50:11;17.5;70.9
79356;SHT31;68825;51.978;5.654;2023-05-07T03:52:40;17.5;70.8
79356;SHT31;68825;51.978;5.654;2023-05-07T03:55:11;17.5;70.7
79356;SHT31;68825;51.978;5.654;2023-05-07T03:57:39;17.5;70.4
79356;SHT31;68825;51.978;5.654;2023-05-07T04:00:11;17.5;70.6
79356;SHT31;68825;51.978;5.654;2023-05-07T04:02:40;17.5;70.3
79356;SHT31;68825;51.978;5.654;2023-05-07T04:05:09;17.5;70.2
79356;SHT31;68825;51.978;5.654;2023-05-07T04:07:40;17.5;69.9
79356;SHT31;68825;51.978;5.654;2023-05-07T04:10:09;17.5;70.2
79356;SHT31;68825;51.978;5.654;2023-05-07T04:12:39;17.4;70.6
79356;SHT31;68825;51.978;5.654;2023-05-07T04:15:08;17.4;70.8
79356;SHT31;68825;51.978;5.654;2023-05-07T04:17:38;17.4;70.7
79356;SHT31;68825;51.978;5.654;2023-05-07T04:20:09;17.4;70.3
79356;SHT31;68825;51.978;5.654;2023-05-07T04:22:40;17.4;70.2
79356;SHT31;68825;51.978;5.654;2023-05-07T04:25:10;17.4;70.0
79356;SHT31;68825;51.978;5.654;2023-05-07T04:27:40;17.4;70.3
79356;SHT31;68825;51.978;5.654;2023-05-07T04:30:09;17.4;70.4
79356;SHT31;68825;51.978;5.654;2023-05-07T04:32:38;17.4;70.6
79356;SHT31;68825;51.978;5.654;2023-05-07T04:35:09;17.4;70.5
79356;SHT31;68825;51.978;5.654;2023-05-07T04:37:38;17.4;70.5
79356;SHT31;68825;51.978;5.654;2023-05-07T04:40:07;17.4;70.2
79356;SHT31;68825;51.978;5.654;2023-05-07T04:42:36;17.4;70.4
79356;SHT31;68825;51.978;5.654;2023-05-07T04:45:06;17.3;70.9
79356;SHT31;68825;51.978;5.654;2023-05-07T04:47:37;17.3;70.9
79356;SHT31;68825;51.978;5.654;2023-05-07T04:50:09;17.3;71.0
79356;SHT31;68825;51.978;5.654;2023-05-07T04:52:41;17.3;71.0
79356;SHT31;68825;51.978;5.654;2023-05-07T04:55:11;17.3;71.0
79356;SHT31;68825;51.978;5.654;2023-05-07T04:57:39;17.3;71.5
79356;SHT31;68825;51.978;5.654;2023-05-07T05:00:09;17.2;71.0
79356;SHT31;68825;51.978;5.654;2023-05-07T05:02:40;17.2;71.3
79356;SHT31;68825;51.978;5.654;2023-05-07T05:05:09;17.2;71.9
79356;SHT31;68825;51.978;5.654;2023-05-07T05:07:38;17.2;71.8
79356;SHT31;68825;51.978;5.654;2023-05-07T05:10:07;17.2;71.8
79356;SHT31;68825;51.978;5.654;2023-05-07T05:12:36;17.2;71.8
79356;SHT31;68825;51.978;5.654;2023-05-07T05:15:07;17.2;71.7
79356;SHT31;68825;51.978;5.654;2023-05-07T05:17:36;17.2;71.8
79356;SHT31;68825;51.978;5.654;2023-05-07T05:20:06;17.3;72.3
79356;SHT31;68825;51.978;5.654;2023-05-07T05:22:36;17.3;71.5
79356;SHT31;68825;51.978;5.654;2023-05-07T05:25:06;17.3;71.7
79356;SHT31;68825;51.978;5.654;2023-05-07T05:27:36;17.3;72.3
79356;SHT31;68825;51.978;5.654;2023-05-07T05:30:05;17.3;71.8
79356;SHT31;68825;51.978;5.654;2023-05-07T05:32:34;17.3;71.8
79356;SHT31;68825;51.978;5.654;2023-05-07T05:35:03;17.3;72.0
79356;SHT31;68825;51.978;5.654;2023-05-07T05:37:32;17.2;71.8
79356;SHT31;68825;51.978;5.654;2023-05-07T05:40:02;17.2;72.3
79356;SHT31;68825;51.978;5.654;2023-05-07T05:42:32;17.3;72.2
79356;SHT31;68825;51.978;5.654;2023-05-07T05:45:01;17.3;72.5
79356;SHT31;68825;51.978;5.654;2023-05-07T05:47:30;17.3;72.1
79356;SHT31;68825;51.978;5.654;2023-05-07T05:50:02;17.3;72.0
79356;SHT31;68825;51.978;5.654;2023-05-07T05:52:32;17.3;72.2
79356;SHT31;68825;51.978;5.654;2023-05-07T05:55:02;17.3;72.1
79356;SHT31;68825;51.978;5.654;2023-05-07T05:57:31;17.3;72.4
79356;SHT31;68825;51.978;5.654;2023-05-07T06:00:03;17.3;72.3
79356;SHT31;68825;51.978;5.654;2023-05-07T06:02:32;17.3;72.3
79356;SHT31;68825;51.978;5.654;2023-05-07T06:05:01;17.3;72.8
79356;SHT31;68825;51.978;5.654;2023-05-07T06:07:30;17.4;72.5
79356;SHT31;68825;51.978;5.654;2023-05-07T06:09:58;17.4;72.7
79356;SHT31;68825;51.978;5.654;2023-05-07T06:12:27;17.4;72.6
79356;SHT31;68825;51.978;5.654;2023-05-07T06:14:55;17.4;73.2
79356;SHT31;68825;51.978;5.654;2023-05-07T06:17:25;17.4;72.6
79356;SHT31;68825;51.978;5.654;2023-05-07T06:19:54;17.5;72.7
79356;SHT31;68825;51.978;5.654;2023-05-07T06:22:24;17.5;72.2
79356;SHT31;68825;51.978;5.654;2023-05-07T06:24:53;17.5;72.1
79356;SHT31;68825;51.978;5.654;2023-05-07T06:27:21;17.5;72.1
79356;SHT31;68825;51.978;5.654;2023-05-07T06:29:50;17.5;72.7
79356;SHT31;68825;51.978;5.654;2023-05-07T06:32:18;17.5;72.6
79356;SHT31;68825;51.978;5.654;2023-05-07T06:34:47;17.5;72.4
79356;SHT31;68825;51.978;5.654;2023-05-07T06:37:16;17.6;72.3
79356;SHT31;68825;51.978;5.654;2023-05-07T06:39:44;17.6;72.4
79356;SHT31;68825;51.978;5.654;2023-05-07T06:42:13;17.6;72.0
79356;SHT31;68825;51.978;5.654;2023-05-07T06:44:41;17.6;72.0
79356;SHT31;68825;51.978;5.654;2023-05-07T06:47:12;17.6;72.4
79356;SHT31;68825;51.978;5.654;2023-05-07T06:49:40;17.6;72.6
79356;SHT31;68825;51.978;5.654;2023-05-07T06:52:09;17.6;72.8
79356;SHT31;68825;51.978;5.654;2023-05-07T06:54:37;17.6;73.1
79356;SHT31;68825;51.978;5.654;2023-05-07T06:57:06;17.6;73.3
79356;SHT31;68825;51.978;5.654;2023-05-07T06:59:35;17.6;73.4
79356;SHT31;68825;51.978;5.654;2023-05-07T07:02:04;17.7;72.8
79356;SHT31;68825;51.978;5.654;2023-05-07T07:04:32;17.7;72.5
79356;SHT31;68825;51.978;5.654;2023-05-07T07:07:01;17.8;72.8
79356;SHT31;68825;51.978;5.654;2023-05-07T07:09:29;17.8;72.4
79356;SHT31;68825;51.978;5.654;2023-05-07T07:11:58;17.9;72.0
79356;SHT31;68825;51.978;5.654;2023-05-07T07:14:27;17.9;71.4
79356;SHT31;68825;51.978;5.654;2023-05-07T07:16:57;17.9;72.2
79356;SHT31;68825;51.978;5.654;2023-05-07T07:19:26;17.9;71.8
79356;SHT31;68825;51.978;5.654;2023-05-07T07:21:55;17.9;72.1
79356;SHT31;68825;51.978;5.654;2023-05-07T07:24:23;17.9;72.2
79356;SHT31;68825;51.978;5.654;2023-05-07T07:26:52;17.9;73.0
79356;SHT31;68825;51.978;5.654;2023-05-07T07:29:21;17.9;72.9
79356;SHT31;68825;51.978;5.654;2023-05-07T07:31:52;17.9;72.2
79356;SHT31;68825;51.978;5.654;2023-05-07T07:34:20;17.9;72.4
79356;SHT31;68825;51.978;5.654;2023-05-07T07:36:49;18.0;72.4
79356;SHT31;68825;51.978;5.654;2023-05-07T07:39:17;18.0;72.1
79356;SHT31;68825;51.978;5.654;2023-05-07T07:41:46;17.9;72.8
79356;SHT31;68825;51.978;5.654;2023-05-07T07:44:16;17.9;72.5
79356;SHT31;68825;51.978;5.654;2023-05-07T07:46:46;18.0;73.3
79356;SHT31;68825;51.978;5.654;2023-05-07T07:49:15;18.0;73.0
79356;SHT31;68825;51.978;5.654;2023-05-07T07:51:43;18.0;72.8
79356;SHT31;68825;51.978;5.654;2023-05-07T07:54:12;18.0;72.9
79356;SHT31;68825;51.978;5.654;2023-05-07T07:56:40;18.1;73.3
79356;SHT31;68825;51.978;5.654;2023-05-07T07:59:09;18.1;73.6
79356;SHT31;68825;51.978;5.654;2023-05-07T08:01:38;18.2;73.7
79356;SHT31;68825;51.978;5.654;2023-05-07T08:04:06;18.2;73.2
79356;SHT31;68825;51.978;5.654;2023-05-07T08:06:37;18.3;72.8
79356;SHT31;68825;51.978;5.654;2023-05-07T08:09:05;18.4;73.2
79356;SHT31;68825;51.978;5.654;2023-05-07T08:11:34;18.4;72.6
79356;SHT31;68825;51.978;5.654;2023-05-07T08:14:03;18.5;71.0
79356;SHT31;68825;51.978;5.654;2023-05-07T08:16:32;18.5;70.6
79356;SHT31;68825;51.978;5.654;2023-05-07T08:19:00;18.6;71.5
79356;SHT31;68825;51.978;5.654;2023-05-07T08:21:29;18.6;70.6
79356;SHT31;68825;51.978;5.654;2023-05-07T08:23:58;18.6;70.8
79356;SHT31;68825;51.978;5.654;2023-05-07T08:26:27;18.7;70.6
79356;SHT31;68825;51.978;5.654;2023-05-07T08:28:56;18.7;70.2
79356;SHT31;68825;51.978;5.654;2023-05-07T08:31:24;18.7;71.3
79356;SHT31;68825;51.978;5.654;2023-05-07T08:33:53;18.8;71.0
79356;SHT31;68825;51.978;5.654;2023-05-07T08:36:21;18.8;70.4
79356;SHT31;68825;51.978;5.654;2023-05-07T08:38:50;18.9;71.1
79356;SHT31;68825;51.978;5.654;2023-05-07T08:41:18;18.9;70.2
79356;SHT31;68825;51.978;5.654;2023-05-07T08:43:49;18.9;68.9
79356;SHT31;68825;51.978;5.654;2023-05-07T08:46:21;18.9;70.1
79356;SHT31;68825;51.978;5.654;2023-05-07T08:48:50;18.9;70.8
79356;SHT31;68825;51.978;5.654;2023-05-07T08:51:21;18.9;69.0
79356;SHT31;68825;51.978;5.654;2023-05-07T08:53:50;19.0;70.1
79356;SHT31;68825;51.978;5.654;2023-05-07T08:56:19;19.0;68.1
79356;SHT31;68825;51.978;5.654;2023-05-07T08:58:49;19.0;70.0
79356;SHT31;68825;51.978;5.654;2023-05-07T09:01:24;19.0;69.9
79356;SHT31;68825;51.978;5.654;2023-05-07T09:03:54;19.0;69.9
79356;SHT31;68825;51.978;5.654;2023-05-07T09:06:24;19.1;69.8
79356;SHT31;68825;51.978;5.654;2023-05-07T09:08:54;19.2;68.0
79356;SHT31;68825;51.978;5.654;2023-05-07T09:11:24;19.3;68.8
79356;SHT31;68825;51.978;5.654;2023-05-07T09:13:55;19.4;69.4
79356;SHT31;68825;51.978;5.654;2023-05-07T09:16:29;19.5;67.7
79356;SHT31;68825;51.978;5.654;2023-05-07T09:18:59;19.6;66.3
79356;SHT31;68825;51.978;5.654;2023-05-07T09:21:28;19.7;67.2
79356;SHT31;68825;51.978;5.654;2023-05-07T09:23:57;19.7;66.1
79356;SHT31;68825;51.978;5.654;2023-05-07T09:26:26;19.8;65.3
79356;SHT31;68825;51.978;5.654;2023-05-07T09:28:57;19.9;65.0
79356;SHT31;68825;51.978;5.654;2023-05-07T09:31:25;19.9;64.0
79356;SHT31;68825;51.978;5.654;2023-05-07T09:33:54;19.9;63.7
79356;SHT31;68825;51.978;5.654;2023-05-07T09:36:23;19.9;63.7
79356;SHT31;68825;51.978;5.654;2023-05-07T09:38:54;19.9;64.9
79356;SHT31;68825;51.978;5.654;2023-05-07T09:41:23;19.9;64.7
79356;SHT31;68825;51.978;5.654;2023-05-07T09:43:55;19.9;67.2
79356;SHT31;68825;51.978;5.654;2023-05-07T09:46:29;20.0;65.6
79356;SHT31;68825;51.978;5.654;2023-05-07T09:49:01;20.1;64.3
79356;SHT31;68825;51.978;5.654;2023-05-07T09:51:39;20.2;64.8
79356;SHT31;68825;51.978;5.654;2023-05-07T09:54:10;20.3;64.8
79356;SHT31;68825;51.978;5.654;2023-05-07T09:56:42;20.3;62.7
79356;SHT31;68825;51.978;5.654;2023-05-07T09:59:14;20.4;62.6
79356;SHT31;68825;51.978;5.654;2023-05-07T10:01:43;20.4;62.6
79356;SHT31;68825;51.978;5.654;2023-05-07T10:04:14;20.5;61.9
79356;SHT31;68825;51.978;5.654;2023-05-07T10:06:44;20.5;61.9
79356;SHT31;68825;51.978;5.654;2023-05-07T10:09:15;20.5;62.1
79356;SHT31;68825;51.978;5.654;2023-05-07T10:11:49;20.5;63.2
79356;SHT31;68825;51.978;5.654;2023-05-07T10:14:19;20.6;62.3
79356;SHT31;68825;51.978;5.654;2023-05-07T10:16:49;20.6;64.9
79356;SHT31;68825;51.978;5.654;2023-05-07T10:19:17;20.7;63.4
79356;SHT31;68825;51.978;5.654;2023-05-07T10:21:56;20.8;64.1
79356;SHT31;68825;51.978;5.654;2023-05-07T10:24:31;20.9;62.8
79356;SHT31;68825;51.978;5.654;2023-05-07T10:27:02;20.9;61.8
79356;SHT31;68825;51.978;5.654;2023-05-07T10:29:42;21.0;61.8
79356;SHT31;68825;51.978;5.654;2023-05-07T10:32:30;21.1;60.8
79356;SHT31;68825;51.978;5.654;2023-05-07T10:35:03;21.1;60.6
79356;SHT31;68825;51.978;5.654;2023-05-07T10:37:34;21.2;59.3
79356;SHT31;68825;51.978;5.654;2023-05-07T10:40:03;21.2;60.2
79356;SHT31;68825;51.978;5.654;2023-05-07T10:42:35;21.2;60.4
79356;SHT31;68825;51.978;5.654;2023-05-07T10:45:13;21.2;60.2
79356;SHT31;68825;51.978;5.654;2023-05-07T10:48:07;21.3;61.2
79356;SHT31;68825;51.978;5.654;2023-05-07T10:50:38;21.3;60.5
79356;SHT31;68825;51.978;5.654;2023-05-07T10:53:25;21.4;60.0
79356;SHT31;68825;51.978;5.654;2023-05-07T10:56:25;21.5;59.0
79356;SHT31;68825;51.978;5.654;2023-05-07T11:01:54;21.6;58.9
79356;SHT31;68825;51.978;5.654;2023-05-07T11:04:24;21.7;59.2
79356;SHT31;68825;51.978;5.654;2023-05-07T11:09:12;21.7;59.2
79356;SHT31;68825;51.978;5.654;2023-05-07T11:11:50;21.8;58.5
79356;SHT31;68825;51.978;5.654;2023-05-07T11:14:45;21.9;57.9
79356;SHT31;68825;51.978;5.654;2023-05-07T11:17:14;21.9;57.3
79356;SHT31;68825;51.978;5.654;2023-05-07T11:19:53;21.9;56.0
79356;SHT31;68825;51.978;5.654;2023-05-07T11:22:37;22.0;56.2
79356;SHT31;68825;51.978;5.654;2023-05-07T11:25:08;22.0;57.8
79356;SHT31;68825;51.978;5.654;2023-05-07T11:27:39;22.0;59.4
79356;SHT31;68825;51.978;5.654;2023-05-07T11:30:08;22.0;59.9
79356;SHT31;68825;51.978;5.654;2023-05-07T11:32:37;22.0;57.1
79356;SHT31;68825;51.978;5.654;2023-05-07T11:35:07;22.1;58.0
79356;SHT31;68825;51.978;5.654;2023-05-07T11:37:37;22.1;58.2
79356;SHT31;68825;51.978;5.654;2023-05-07T11:40:08;22.2;59.4
79356;SHT31;68825;51.978;5.654;2023-05-07T11:42:39;22.2;58.0
79356;SHT31;68825;51.978;5.654;2023-05-07T11:45:09;22.3;58.9
79356;SHT31;68825;51.978;5.654;2023-05-07T11:47:38;22.3;55.4
79356;SHT31;68825;51.978;5.654;2023-05-07T11:50:09;22.4;55.0
79356;SHT31;68825;51.978;5.654;2023-05-07T11:52:38;22.4;55.1
79356;SHT31;68825;51.978;5.654;2023-05-07T11:55:08;22.5;56.3
79356;SHT31;68825;51.978;5.654;2023-05-07T11:57:36;22.5;56.9
79356;SHT31;68825;51.978;5.654;2023-05-07T12:00:06;22.5;57.0
79356;SHT31;68825;51.978;5.654;2023-05-07T12:02:35;22.5;57.0
79356;SHT31;68825;51.978;5.654;2023-05-07T12:05:05;22.6;58.3
79356;SHT31;68825;51.978;5.654;2023-05-07T12:07:35;22.6;57.8
79356;SHT31;68825;51.978;5.654;2023-05-07T12:10:06;22.6;57.1
79356;SHT31;68825;51.978;5.654;2023-05-07T12:12:40;22.6;58.3
79356;SHT31;68825;51.978;5.654;2023-05-07T12:15:09;22.6;55.8
79356;SHT31;68825;51.978;5.654;2023-05-07T12:17:38;22.6;54.7
79356;SHT31;68825;51.978;5.654;2023-05-07T12:20:09;22.7;57.0
79356;SHT31;68825;51.978;5.654;2023-05-07T12:22:38;22.7;57.3
79356;SHT31;68825;51.978;5.654;2023-05-07T12:25:07;22.8;57.9
79356;SHT31;68825;51.978;5.654;2023-05-07T12:27:40;22.8;56.2
79356;SHT31;68825;51.978;5.654;2023-05-07T12:30:11;22.8;56.5
79356;SHT31;68825;51.978;5.654;2023-05-07T12:32:41;22.9;54.6
79356;SHT31;68825;51.978;5.654;2023-05-07T12:35:09;22.9;54.1
79356;SHT31;68825;51.978;5.654;2023-05-07T12:37:39;23.0;53.6
79356;SHT31;68825;51.978;5.654;2023-05-07T12:40:10;23.1;54.6
79356;SHT31;68825;51.978;5.654;2023-05-07T12:42:40;23.1;52.2
79356;SHT31;68825;51.978;5.654;2023-05-07T12:45:13;23.1;53.6
79356;SHT31;68825;51.978;5.654;2023-05-07T12:47:45;23.1;54.0
79356;SHT31;68825;51.978;5.654;2023-05-07T12:50:15;23.1;56.2
79356;SHT31;68825;51.978;5.654;2023-05-07T12:52:47;23.2;56.2
79356;SHT31;68825;51.978;5.654;2023-05-07T12:55:16;23.3;55.5
79356;SHT31;68825;51.978;5.654;2023-05-07T12:57:48;23.4;54.9
79356;SHT31;68825;51.978;5.654;2023-05-07T13:00:34;23.4;56.6
79356;SHT31;68825;51.978;5.654;2023-05-07T13:03:02;23.5;54.1
79356;SHT31;68825;51.978;5.654;2023-05-07T13:05:31;23.6;53.7
79356;SHT31;68825;51.978;5.654;2023-05-07T13:08:01;23.6;52.4
79356;SHT31;68825;51.978;5.654;2023-05-07T13:10:30;23.6;53.2
79356;SHT31;68825;51.978;5.654;2023-05-07T13:13:00;23.6;51.9
79356;SHT31;68825;51.978;5.654;2023-05-07T13:15:29;23.6;53.4
79356;SHT31;68825;51.978;5.654;2023-05-07T13:17:58;23.6;53.5
79356;SHT31;68825;51.978;5.654;2023-05-07T13:20:28;23.6;52.7
79356;SHT31;68825;51.978;5.654;2023-05-07T13:22:57;23.6;54.5
79356;SHT31;68825;51.978;5.654;2023-05-07T13:25:28;23.7;51.9
79356;SHT31;68825;51.978;5.654;2023-05-07T13:27:57;23.7;52.3
79356;SHT31;68825;51.978;5.654;2023-05-07T13:30:26;23.7;49.6
79356;SHT31;68825;51.978;5.654;2023-05-07T13:32:55;23.7;52.0
79356;SHT31;68825;51.978;5.654;2023-05-07T13:35:24;23.8;52.0
79356;SHT31;68825;51.978;5.654;2023-05-07T13:37:53;23.8;52.9
79356;SHT31;68825;51.978;5.654;2023-05-07T13:40:22;23.8;52.8
79356;SHT31;68825;51.978;5.654;2023-05-07T13:42:51;23.8;52.0
79356;SHT31;68825;51.978;5.654;2023-05-07T13:45:20;23.8;51.6
79356;SHT31;68825;51.978;5.654;2023-05-07T13:47:52;23.9;52.4
79356;SHT31;68825;51.978;5.654;2023-05-07T13:50:20;23.9;51.7
79356;SHT31;68825;51.978;5.654;2023-05-07T13:52:49;24.0;51.6
79356;SHT31;68825;51.978;5.654;2023-05-07T13:55:19;24.0;49.7
79356;SHT31;68825;51.978;5.654;2023-05-07T13:57:56;24.1;51.3
79356;SHT31;68825;51.978;5.654;2023-05-07T14:00:26;24.1;51.2
79356;SHT31;68825;51.978;5.654;2023-05-07T14:02:56;24.2;49.8
79356;SHT31;68825;51.978;5.654;2023-05-07T14:05:27;24.2;50.4
79356;SHT31;68825;51.978;5.654;2023-05-07T14:07:57;24.2;50.8
79356;SHT31;68825;51.978;5.654;2023-05-07T14:10:26;24.2;51.2
79356;SHT31;68825;51.978;5.654;2023-05-07T14:12:57;24.3;51.9
79356;SHT31;68825;51.978;5.654;2023-05-07T14:15:26;24.3;52.6
79356;SHT31;68825;51.978;5.654;2023-05-07T14:17:54;24.3;51.3
79356;SHT31;68825;51.978;5.654;2023-05-07T14:20:24;24.3;51.5
79356;SHT31;68825;51.978;5.654;2023-05-07T14:22:52;24.3;52.4
79356;SHT31;68825;51.978;5.654;2023-05-07T14:25:21;24.4;52.3
79356;SHT31;68825;51.978;5.654;2023-05-07T14:27:49;24.4;52.6
79356;SHT31;68825;51.978;5.654;2023-05-07T14:30:18;24.4;52.1
79356;SHT31;68825;51.978;5.654;2023-05-07T14:32:49;24.4;51.4
79356;SHT31;68825;51.978;5.654;2023-05-07T14:35:17;24.4;52.5
79356;SHT31;68825;51.978;5.654;2023-05-07T14:37:46;24.4;51.5
79356;SHT31;68825;51.978;5.654;2023-05-07T14:40:16;24.3;52.2
79356;SHT31;68825;51.978;5.654;2023-05-07T14:42:44;24.3;52.2
79356;SHT31;68825;51.978;5.654;2023-05-07T14:45:15;24.3;52.7
79356;SHT31;68825;51.978;5.654;2023-05-07T14:47:44;24.3;52.7
79356;SHT31;68825;51.978;5.654;2023-05-07T14:50:12;24.3;52.0
79356;SHT31;68825;51.978;5.654;2023-05-07T14:52:41;24.3;52.4
79356;SHT31;68825;51.978;5.654;2023-05-07T14:55:10;24.3;52.5
79356;SHT31;68825;51.978;5.654;2023-05-07T14:57:38;24.3;52.1
79356;SHT31;68825;51.978;5.654;2023-05-07T15:00:08;24.3;51.1
79356;SHT31;68825;51.978;5.654;2023-05-07T15:02:37;24.3;51.8
79356;SHT31;68825;51.978;5.654;2023-05-07T15:05:07;24.3;51.6
79356;SHT31;68825;51.978;5.654;2023-05-07T15:07:35;24.3;52.7
79356;SHT31;68825;51.978;5.654;2023-05-07T15:10:05;24.2;52.1
79356;SHT31;68825;51.978;5.654;2023-05-07T15:12:33;24.2;50.4
79356;SHT31;68825;51.978;5.654;2023-05-07T15:15:02;24.2;52.0
79356;SHT31;68825;51.978;5.654;2023-05-07T15:17:31;24.1;51.8
79356;SHT31;68825;51.978;5.654;2023-05-07T15:19:59;24.1;51.1
79356;SHT31;68825;51.978;5.654;2023-05-07T15:22:30;24.0;51.6
79356;SHT31;68825;51.978;5.654;2023-05-07T15:24:59;23.9;51.8
79356;SHT31;68825;51.978;5.654;2023-05-07T15:27:28;23.8;50.2
79356;SHT31;68825;51.978;5.654;2023-05-07T15:29:57;23.6;49.8
79356;SHT31;68825;51.978;5.654;2023-05-07T15:32:27;23.5;49.7
79356;SHT31;68825;51.978;5.654;2023-05-07T15:34:56;23.3;49.8
79356;SHT31;68825;51.978;5.654;2023-05-07T15:37:25;23.2;50.4
79356;SHT31;68825;51.978;5.654;2023-05-07T15:39:53;23.0;51.3
79356;SHT31;68825;51.978;5.654;2023-05-07T15:42:22;22.9;51.2
79356;SHT31;68825;51.978;5.654;2023-05-07T15:44:51;22.7;51.8
79356;SHT31;68825;51.978;5.654;2023-05-07T15:47:20;22.6;52.7
79356;SHT31;68825;51.978;5.654;2023-05-07T15:49:51;22.5;54.8
79356;SHT31;68825;51.978;5.654;2023-05-07T15:52:19;22.3;57.1
79356;SHT31;68825;51.978;5.654;2023-05-07T15:54:48;22.2;57.8
79356;SHT31;68825;51.978;5.654;2023-05-07T15:57:16;22.1;58.2
79356;SHT31;68825;51.978;5.654;2023-05-07T15:59:45;22.0;59.9
79356;SHT31;68825;51.978;5.654;2023-05-07T16:02:14;21.8;60.0
79356;SHT31;68825;51.978;5.654;2023-05-07T16:04:42;21.7;59.2
79356;SHT31;68825;51.978;5.654;2023-05-07T16:07:11;21.6;61.0
79356;SHT31;68825;51.978;5.654;2023-05-07T16:09:40;21.4;62.2
79356;SHT31;68825;51.978;5.654;2023-05-07T16:12:08;21.2;63.6
79356;SHT31;68825;51.978;5.654;2023-05-07T16:14:37;21.1;64.0
79356;SHT31;68825;51.978;5.654;2023-05-07T16:17:06;20.9;65.3
79356;SHT31;68825;51.978;5.654;2023-05-07T16:19:35;20.7;64.1
79356;SHT31;68825;51.978;5.654;2023-05-07T16:22:06;20.5;64.7
79356;SHT31;68825;51.978;5.654;2023-05-07T16:24:36;20.4;63.4